createdAt,value
2023-05-23T00:00:55.422Z,39.06
2023-05-23T00:01:55.491Z,38.99
2023-05-23T00:02:55.491Z,39.01
2023-05-23T00:03:55.471Z,39.00
2023-05-23T00:04:55.384Z,38.94
2023-05-23T00:05:55.370Z,38.99
2023-05-23T00:06:55.374Z,38.88
2023-05-23T00:07:55.363Z,38.90
2023-05-23T00:08:55.355Z,38.88
2023-05-23T00:09:55.346Z,38.85
2023-05-23T00:10:55.339Z,38.84
2023-05-23T00:11:55.451Z,38.77
2023-05-23T00:12:55.331Z,38.77
2023-05-23T00:13:55.316Z,38.76
2023-05-23T00:14:55.335Z,38.69
2023-05-23T00:15:55.301Z,38.66
2023-05-23T00:16:55.362Z,38.62
2023-05-23T00:17:55.318Z,38.62
2023-05-23T00:18:55.303Z,38.60
2023-05-23T00:19:55.271Z,38.58
2023-05-23T00:20:55.267Z,38.57
2023-05-23T00:21:55.256Z,38.52
2023-05-23T00:22:55.248Z,38.48
2023-05-23T00:23:55.237Z,38.47
2023-05-23T00:24:55.233Z,38.46
2023-05-23T00:25:55.252Z,38.42
2023-05-23T00:26:55.221Z,38.37
2023-05-23T00:27:55.362Z,38.35
2023-05-23T00:28:55.211Z,38.37
2023-05-23T00:29:55.197Z,38.36
2023-05-23T00:30:55.200Z,38.36
2023-05-23T00:31:55.187Z,38.35
2023-05-23T00:32:55.235Z,38.30
2023-05-23T00:33:55.181Z,38.28
2023-05-23T00:34:55.164Z,38.24
2023-05-23T00:35:55.165Z,38.26
2023-05-23T00:36:55.152Z,38.22
2023-05-23T00:37:55.145Z,38.20
2023-05-23T00:38:55.144Z,38.22
2023-05-23T00:39:55.128Z,38.21
2023-05-23T00:40:55.133Z,38.20
2023-05-23T00:41:55.115Z,38.17
2023-05-23T00:42:55.102Z,38.17
2023-05-23T00:43:55.214Z,38.17
2023-05-23T00:44:55.091Z,38.18
2023-05-23T00:45:55.090Z,38.15
2023-05-23T00:46:55.549Z,38.14
2023-05-23T00:47:55.095Z,38.18
2023-05-23T00:48:55.070Z,38.18
2023-05-23T00:49:55.064Z,38.14
2023-05-23T00:50:55.054Z,38.16
2023-05-23T00:51:55.058Z,38.17
2023-05-23T00:52:55.049Z,38.14
2023-05-23T00:53:55.029Z,38.18
2023-05-23T00:54:55.024Z,38.09
2023-05-23T00:55:55.032Z,38.09
2023-05-23T00:56:55.039Z,38.05
2023-05-23T00:57:55.005Z,38.07
2023-05-23T00:58:55.004Z,38.07
2023-05-23T00:59:55.114Z,38.07
2023-05-23T01:00:55.006Z,38.08
2023-05-23T01:01:55.039Z,38.10
2023-05-23T01:02:55.189Z,38.08
2023-05-23T01:03:55.041Z,38.03
2023-05-23T01:04:54.949Z,38.05
2023-05-23T01:05:54.960Z,38.03
2023-05-23T01:06:54.947Z,38.02
2023-05-23T01:07:54.927Z,38.00
2023-05-23T01:08:54.922Z,37.99
2023-05-23T01:09:54.916Z,38.04
2023-05-23T01:10:54.916Z,38.02
2023-05-23T01:11:54.915Z,38.02
2023-05-23T01:12:54.914Z,37.99
2023-05-23T01:13:54.912Z,38.00
2023-05-23T01:14:54.910Z,37.99
2023-05-23T01:15:55.062Z,37.99
2023-05-23T01:16:54.938Z,37.98
2023-05-23T01:17:54.953Z,38.01
2023-05-23T01:18:55.225Z,37.96
2023-05-23T01:19:54.916Z,37.98
2023-05-23T01:20:54.911Z,37.95
2023-05-23T01:21:54.912Z,37.98
2023-05-23T01:22:54.914Z,37.95
2023-05-23T01:23:54.913Z,37.98
2023-05-23T01:24:54.924Z,37.93
2023-05-23T01:25:54.918Z,37.95
2023-05-23T01:26:54.915Z,37.95
2023-05-23T01:27:54.919Z,37.98
2023-05-23T01:28:54.936Z,37.97
2023-05-23T01:29:54.916Z,37.98
2023-05-23T01:30:54.918Z,37.97
2023-05-23T01:31:55.102Z,37.97
2023-05-23T01:32:54.966Z,37.99
2023-05-23T01:33:54.906Z,37.99
2023-05-23T01:34:54.911Z,37.95
2023-05-23T01:35:54.899Z,37.95
2023-05-23T01:36:54.894Z,37.99
2023-05-23T01:37:54.919Z,37.97
2023-05-23T01:38:54.908Z,37.97
2023-05-23T01:39:54.897Z,37.94
2023-05-23T01:40:54.896Z,37.98
2023-05-23T01:41:54.931Z,37.94
2023-05-23T01:42:54.895Z,37.97
2023-05-23T01:43:54.909Z,37.94
2023-05-23T01:44:54.903Z,37.95
2023-05-23T01:45:54.964Z,37.90
2023-05-23T01:46:54.905Z,37.94
2023-05-23T01:47:55.074Z,37.95
2023-05-23T01:48:54.926Z,37.91
2023-05-23T01:49:54.919Z,37.93
2023-05-23T01:50:54.933Z,37.92
2023-05-23T01:51:54.928Z,37.94
2023-05-23T01:52:54.945Z,37.94
2023-05-23T01:53:54.937Z,37.93
2023-05-23T01:54:54.929Z,37.95
2023-05-23T01:55:54.932Z,37.92
2023-05-23T01:56:54.939Z,37.87
2023-05-23T01:57:54.926Z,37.91
2023-05-23T01:58:54.935Z,37.93
2023-05-23T01:59:54.956Z,37.97
2023-05-23T02:00:54.940Z,37.94
2023-05-23T02:01:54.940Z,37.90
2023-05-23T02:02:54.990Z,37.94
2023-05-23T02:03:55.085Z,37.93
2023-05-23T02:04:55.020Z,37.94
2023-05-23T02:05:54.963Z,37.93
2023-05-23T02:06:54.954Z,37.94
2023-05-23T02:07:54.965Z,37.91
2023-05-23T02:08:54.971Z,37.91
2023-05-23T02:09:54.977Z,37.92
2023-05-23T02:10:54.976Z,37.93
2023-05-23T02:11:54.998Z,37.93
2023-05-23T02:12:54.995Z,37.94
2023-05-23T02:13:54.987Z,37.95
2023-05-23T02:14:55.002Z,37.96
2023-05-23T02:15:54.999Z,37.92
2023-05-23T02:16:55.083Z,37.94
2023-05-23T02:17:55.054Z,37.94
2023-05-23T02:18:55.087Z,37.93
2023-05-23T02:19:55.157Z,37.95
2023-05-23T02:20:55.033Z,37.94
2023-05-23T02:21:55.034Z,37.93
2023-05-23T02:22:55.029Z,37.90
2023-05-23T02:23:55.045Z,37.91
2023-05-23T02:24:55.065Z,37.94
2023-05-23T02:25:55.049Z,37.91
2023-05-23T02:26:55.049Z,37.92
2023-05-23T02:27:55.061Z,37.96
2023-05-23T02:28:55.083Z,37.92
2023-05-23T02:29:55.077Z,37.90
2023-05-23T02:30:55.080Z,37.89
2023-05-23T02:31:55.080Z,37.89
2023-05-23T02:32:55.119Z,37.91
2023-05-23T02:33:55.097Z,37.90
2023-05-23T02:34:57.282Z,37.83
2023-05-23T02:35:55.232Z,37.87
2023-05-23T02:36:55.098Z,37.85
2023-05-23T02:37:55.090Z,37.87
2023-05-23T02:38:55.079Z,37.87
2023-05-23T02:39:55.104Z,37.85
2023-05-23T02:40:55.065Z,37.86
2023-05-23T02:41:55.059Z,37.86
2023-05-23T02:42:55.051Z,37.85
2023-05-23T02:43:55.043Z,37.85
2023-05-23T02:44:55.037Z,37.86
2023-05-23T02:45:55.081Z,37.82
2023-05-23T02:46:55.024Z,37.77
2023-05-23T02:47:55.031Z,37.81
2023-05-23T02:48:55.011Z,37.80
2023-05-23T02:49:55.000Z,37.81
2023-05-23T02:50:55.001Z,37.79
2023-05-23T02:51:55.109Z,37.76
2023-05-23T02:52:54.979Z,37.79
2023-05-23T02:53:54.981Z,37.80
2023-05-23T02:54:54.974Z,37.79
2023-05-23T02:55:54.980Z,37.81
2023-05-23T02:56:54.961Z,37.76
2023-05-23T02:57:54.969Z,37.80
2023-05-23T02:58:54.972Z,37.79
2023-05-23T02:59:54.952Z,37.79
2023-05-23T03:00:54.934Z,37.77
2023-05-23T03:01:54.979Z,37.76
2023-05-23T03:02:55.005Z,37.75
2023-05-23T03:03:54.975Z,37.75
2023-05-23T03:04:54.910Z,37.76
2023-05-23T03:05:54.907Z,37.76
2023-05-23T03:06:54.888Z,37.79
2023-05-23T03:07:55.018Z,37.77
2023-05-23T03:08:54.957Z,37.77
2023-05-23T03:09:54.871Z,37.79
2023-05-23T03:10:54.871Z,37.79
2023-05-23T03:11:54.856Z,37.79
2023-05-23T03:12:54.855Z,37.76
2023-05-23T03:13:54.906Z,37.78
2023-05-23T03:14:54.832Z,37.79
2023-05-23T03:15:54.846Z,37.77
2023-05-23T03:16:54.818Z,37.78
2023-05-23T03:17:54.848Z,37.79
2023-05-23T03:18:54.852Z,37.81
2023-05-23T03:19:54.808Z,37.77
2023-05-23T03:20:54.792Z,37.77
2023-05-23T03:21:54.784Z,37.79
2023-05-23T03:22:54.779Z,37.76
2023-05-23T03:23:54.901Z,37.77
2023-05-23T03:24:54.762Z,37.80
2023-05-23T03:25:54.754Z,37.76
2023-05-23T03:26:54.750Z,37.81
2023-05-23T03:27:54.742Z,37.82
2023-05-23T03:28:54.726Z,37.77
2023-05-23T03:29:54.715Z,37.78
2023-05-23T03:30:54.710Z,37.75
2023-05-23T03:31:54.818Z,37.81
2023-05-23T03:32:54.756Z,37.81
2023-05-23T03:33:54.691Z,37.76
2023-05-23T03:34:54.696Z,37.79
2023-05-23T03:35:54.678Z,37.78
2023-05-23T03:36:54.676Z,37.79
2023-05-23T03:37:54.682Z,37.77
2023-05-23T03:38:54.648Z,37.81
2023-05-23T03:39:54.775Z,37.78
2023-05-23T03:40:54.641Z,37.80
2023-05-23T03:41:54.634Z,37.76
2023-05-23T03:42:54.615Z,37.84
2023-05-23T03:43:54.608Z,37.81
2023-05-23T03:44:54.604Z,37.77
2023-05-23T03:45:54.665Z,37.77
2023-05-23T03:46:54.606Z,37.78
2023-05-23T03:47:54.621Z,37.77
2023-05-23T03:48:54.576Z,37.78
2023-05-23T03:49:54.587Z,37.79
2023-05-23T03:50:54.596Z,37.79
2023-05-23T03:51:54.560Z,37.77
2023-05-23T03:52:54.602Z,37.80
2023-05-23T03:53:54.537Z,37.76
2023-05-23T03:54:54.554Z,37.79
2023-05-23T03:55:54.655Z,37.79
2023-05-23T03:56:54.523Z,37.80
2023-05-23T03:57:54.626Z,37.78
2023-05-23T03:58:54.529Z,37.79
2023-05-23T03:59:54.518Z,37.82
2023-05-23T04:00:54.503Z,37.82
2023-05-23T04:01:54.561Z,37.77
2023-05-23T04:02:54.687Z,37.77
2023-05-23T04:03:54.604Z,37.81
2023-05-23T04:04:54.535Z,37.77
2023-05-23T04:05:54.549Z,37.78
2023-05-23T04:06:54.554Z,37.80
2023-05-23T04:07:54.565Z,37.81
2023-05-23T04:08:54.572Z,37.79
2023-05-23T04:09:54.590Z,37.78
2023-05-23T04:10:54.606Z,37.78
2023-05-23T04:11:54.749Z,37.77
2023-05-23T04:12:54.635Z,37.81
2023-05-23T04:13:54.640Z,37.78
2023-05-23T04:14:54.639Z,37.80
2023-05-23T04:15:54.696Z,37.78
2023-05-23T04:16:54.643Z,37.80
2023-05-23T04:17:54.674Z,37.81
2023-05-23T04:18:54.737Z,37.82
2023-05-23T04:19:54.659Z,37.79
2023-05-23T04:20:54.678Z,37.84
2023-05-23T04:21:54.679Z,37.78
2023-05-23T04:22:54.697Z,37.82
2023-05-23T04:23:55.271Z,37.81
2023-05-23T04:24:54.712Z,37.81
2023-05-23T04:25:54.738Z,37.82
2023-05-23T04:26:54.738Z,37.82
2023-05-23T04:27:54.892Z,37.84
2023-05-23T04:28:54.780Z,37.84
2023-05-23T04:29:54.781Z,37.82
2023-05-23T04:30:54.855Z,37.79
2023-05-23T04:31:54.808Z,37.77
2023-05-23T04:32:54.918Z,37.81
2023-05-23T04:33:54.852Z,37.84
2023-05-23T04:34:54.844Z,37.79
2023-05-23T04:35:54.846Z,37.84
2023-05-23T04:36:54.871Z,37.81
2023-05-23T04:37:54.876Z,37.82
2023-05-23T04:38:54.930Z,37.84
2023-05-23T04:39:54.907Z,37.88
2023-05-23T04:40:54.927Z,37.85
2023-05-23T04:41:54.922Z,37.86
2023-05-23T04:42:54.939Z,37.84
2023-05-23T04:43:55.311Z,37.82
2023-05-23T04:44:54.965Z,37.86
2023-05-23T04:45:54.968Z,37.88
2023-05-23T04:46:55.028Z,37.86
2023-05-23T04:47:55.088Z,37.84
2023-05-23T04:48:55.051Z,37.85
2023-05-23T04:49:55.021Z,37.86
2023-05-23T04:50:55.026Z,37.82
2023-05-23T04:51:55.055Z,37.84
2023-05-23T04:52:55.064Z,37.82
2023-05-23T04:53:55.089Z,37.83
2023-05-23T04:54:55.104Z,37.89
2023-05-23T04:55:55.112Z,37.88
2023-05-23T04:56:55.123Z,37.88
2023-05-23T04:57:55.123Z,37.86
2023-05-23T04:58:55.132Z,37.90
2023-05-23T04:59:55.257Z,37.90
2023-05-23T05:00:55.176Z,37.86
2023-05-23T05:01:55.196Z,37.94
2023-05-23T05:02:55.254Z,37.88
2023-05-23T05:03:55.225Z,37.88
2023-05-23T05:04:55.201Z,37.87
2023-05-23T05:05:55.230Z,37.94
2023-05-23T05:06:55.225Z,37.93
2023-05-23T05:07:55.269Z,37.90
2023-05-23T05:08:55.254Z,37.93
2023-05-23T05:09:55.284Z,37.92
2023-05-23T05:10:55.273Z,37.92
2023-05-23T05:11:55.287Z,37.95
2023-05-23T05:12:55.314Z,37.95
2023-05-23T05:13:55.326Z,37.97
2023-05-23T05:14:55.764Z,37.94
2023-05-23T05:15:55.462Z,37.94
2023-05-23T05:16:55.372Z,37.99
2023-05-23T05:17:55.403Z,37.98
2023-05-23T05:18:55.432Z,37.98
2023-05-23T05:19:55.761Z,37.95
2023-05-23T05:20:55.416Z,38.01
2023-05-23T05:21:55.420Z,38.06
2023-05-23T05:22:55.437Z,38.02
2023-05-23T05:23:55.456Z,38.00
2023-05-23T05:24:55.466Z,38.00
2023-05-23T05:25:55.491Z,38.02
2023-05-23T05:26:55.500Z,37.95
2023-05-23T05:27:55.500Z,37.93
2023-05-23T05:28:55.525Z,37.92
2023-05-23T05:29:55.506Z,37.96
2023-05-23T05:30:55.658Z,37.95
2023-05-23T05:31:55.664Z,37.90
2023-05-23T05:32:55.584Z,37.94
2023-05-23T05:33:55.581Z,37.97
2023-05-23T05:34:55.563Z,37.96
2023-05-23T05:35:56.267Z,37.95
2023-05-23T05:36:55.588Z,37.95
2023-05-23T05:37:55.603Z,38.02
2023-05-23T05:38:55.602Z,38.02
2023-05-23T05:39:55.638Z,37.96
2023-05-23T05:40:55.622Z,38.02
2023-05-23T05:41:55.624Z,38.06
2023-05-23T05:42:55.626Z,38.02
2023-05-23T05:43:55.644Z,38.00
2023-05-23T05:44:55.780Z,37.95
2023-05-23T05:45:55.826Z,37.97
2023-05-23T05:46:55.700Z,37.94
2023-05-23T05:47:55.807Z,37.94
2023-05-23T05:48:55.828Z,37.95
2023-05-23T05:49:55.649Z,37.93
2023-05-23T05:50:55.683Z,37.96
2023-05-23T05:51:55.659Z,37.96
2023-05-23T05:52:55.662Z,37.95
2023-05-23T05:53:55.832Z,37.99
2023-05-23T05:54:55.662Z,38.23
2023-05-23T05:55:55.664Z,38.29
2023-05-23T05:57:11.277Z,38.25
2023-05-23T05:57:58.885Z,38.47
2023-05-23T05:58:56.073Z,38.62
2023-05-23T05:59:55.651Z,38.76
2023-05-23T06:00:55.651Z,38.86
2023-05-23T06:01:55.798Z,39.20
2023-05-23T06:02:55.771Z,39.20
2023-05-23T06:03:56.834Z,39.23
2023-05-23T06:04:55.790Z,39.33
2023-05-23T06:07:56.283Z,39.71
2023-05-23T06:09:56.188Z,39.88
2023-05-23T06:10:56.339Z,40.00
2023-05-23T06:11:55.940Z,40.03
2023-05-23T06:12:56.135Z,40.07
2023-05-23T06:13:55.875Z,39.99
2023-05-23T06:14:56.377Z,40.19
2023-05-23T06:15:56.028Z,40.38
2023-05-23T06:16:55.867Z,40.90
2023-05-23T06:17:57.102Z,41.09
2023-05-23T06:18:56.287Z,41.25
2023-05-23T06:19:56.355Z,41.38
2023-05-23T06:20:56.442Z,41.59
2023-05-23T06:21:55.950Z,41.65
2023-05-23T06:22:56.355Z,41.91
2023-05-23T06:23:56.208Z,42.05
2023-05-23T06:24:56.323Z,42.28
2023-05-23T06:25:55.975Z,42.23
2023-05-23T06:26:56.204Z,42.32
2023-05-23T06:27:56.190Z,42.42
2023-05-23T06:28:56.274Z,42.48
2023-05-23T06:29:56.392Z,42.72
2023-05-23T06:30:56.188Z,42.89
2023-05-23T06:31:56.050Z,43.01
2023-05-23T06:32:56.287Z,42.83
2023-05-23T06:33:56.223Z,42.94
2023-05-23T06:34:56.153Z,43.01
2023-05-23T06:35:56.439Z,43.14
2023-05-23T06:36:57.035Z,43.17
2023-05-23T06:37:56.298Z,43.19
2023-05-23T06:38:55.937Z,43.31
2023-05-23T06:39:56.205Z,43.40
2023-05-23T06:40:56.220Z,43.42
2023-05-23T06:41:57.324Z,43.50
2023-05-23T06:43:05.355Z,43.59
2023-05-23T06:43:56.245Z,43.72
2023-05-23T06:46:12.093Z,43.89
2023-05-23T06:46:56.181Z,43.86
2023-05-23T06:47:56.414Z,43.80
2023-05-23T06:49:15.048Z,43.80
2023-05-23T06:49:57.713Z,43.90
2023-05-23T06:50:56.378Z,43.92
2023-05-23T06:51:56.702Z,43.98
2023-05-23T06:52:56.883Z,44.03
2023-05-23T06:53:56.182Z,44.08
2023-05-23T06:54:56.288Z,44.13
2023-05-23T06:55:56.176Z,44.24
2023-05-23T06:56:56.306Z,44.30
2023-05-23T06:57:56.014Z,44.43
2023-05-23T06:58:56.289Z,44.50
2023-05-23T06:59:56.323Z,44.53
2023-05-23T07:00:56.170Z,44.64
2023-05-23T07:01:56.395Z,44.69
2023-05-23T07:02:57.152Z,44.78
2023-05-23T07:03:56.281Z,44.82
2023-05-23T07:04:56.886Z,44.90
2023-05-23T07:05:56.387Z,44.95
2023-05-23T07:06:56.367Z,45.01
2023-05-23T07:07:56.737Z,44.99
2023-05-23T07:08:56.339Z,45.07
2023-05-23T07:09:56.348Z,45.07
2023-05-23T07:10:56.761Z,45.07
2023-05-23T07:11:56.524Z,45.05
2023-05-23T07:12:56.664Z,45.08
2023-05-23T07:13:56.391Z,45.08
2023-05-23T07:14:56.299Z,45.08
2023-05-23T07:15:56.314Z,45.00
2023-05-23T07:16:56.399Z,45.03
2023-05-23T07:17:56.402Z,45.05
2023-05-23T07:18:56.453Z,44.95
2023-05-23T07:19:56.461Z,44.99
2023-05-23T07:20:56.471Z,44.96
2023-05-23T07:21:56.830Z,44.95
2023-05-23T07:22:56.541Z,44.89
2023-05-23T07:23:56.698Z,44.91
2023-05-23T07:24:56.671Z,44.86
2023-05-23T07:26:02.376Z,44.90
2023-05-23T07:26:56.650Z,44.83
2023-05-23T07:27:56.631Z,44.86
2023-05-23T07:28:56.632Z,44.85
2023-05-23T07:29:56.832Z,44.88
2023-05-23T07:30:56.621Z,44.85
2023-05-23T07:31:57.619Z,44.82
2023-05-23T07:32:56.818Z,44.84
2023-05-23T07:33:56.823Z,44.86
2023-05-23T07:34:56.843Z,44.85
2023-05-23T07:37:12.221Z,44.83
2023-05-23T07:37:56.812Z,44.86
2023-05-23T07:38:59.823Z,44.90
2023-05-23T07:39:56.813Z,44.85
2023-05-23T07:41:10.677Z,44.82
2023-05-23T07:42:56.551Z,44.77
2023-05-23T07:43:57.611Z,44.76
2023-05-23T07:44:56.812Z,44.83
2023-05-23T07:45:56.524Z,44.77
2023-05-23T07:46:56.673Z,44.74
2023-05-23T07:47:56.849Z,44.73
2023-05-23T07:48:56.493Z,44.80
2023-05-23T07:49:56.818Z,44.70
2023-05-23T07:50:56.473Z,44.67
2023-05-23T07:51:56.466Z,44.91
2023-05-23T07:53:12.090Z,44.83
2023-05-23T07:53:59.645Z,45.03
2023-05-23T07:54:56.844Z,44.91
2023-05-23T07:55:56.454Z,44.97
2023-05-23T07:56:56.505Z,45.00
2023-05-23T07:57:56.458Z,45.01
2023-05-23T07:58:56.415Z,45.01
2023-05-23T07:59:56.814Z,44.89
2023-05-23T08:00:56.432Z,44.97
2023-05-23T08:03:12.100Z,44.95
2023-05-23T08:03:59.615Z,45.01
2023-05-23T08:04:57.390Z,44.88
2023-05-23T08:05:56.827Z,44.99
2023-05-23T08:07:55.571Z,44.97
2023-05-23T08:08:56.351Z,45.01
2023-05-23T08:09:56.821Z,45.10
2023-05-23T08:10:56.372Z,45.16
2023-05-23T08:11:56.322Z,45.09
2023-05-23T08:12:56.534Z,45.07
2023-05-23T08:13:56.309Z,45.19
2023-05-23T08:14:56.337Z,45.24
2023-05-23T08:15:59.564Z,45.30
2023-05-23T08:16:56.368Z,45.29
2023-05-23T08:17:56.363Z,45.30
2023-05-23T08:18:56.326Z,45.29
2023-05-23T08:19:56.343Z,45.34
2023-05-23T08:21:03.684Z,45.38
2023-05-23T08:21:56.264Z,45.36
2023-05-23T08:22:56.297Z,45.33
2023-05-23T08:23:56.240Z,45.43
2023-05-23T08:24:56.234Z,45.50
2023-05-23T08:25:57.233Z,45.41
2023-05-23T08:26:56.240Z,45.39
2023-05-23T08:27:56.215Z,45.45
2023-05-23T08:28:56.206Z,45.43
2023-05-23T08:29:56.329Z,45.44
2023-05-23T08:30:56.195Z,45.52
2023-05-23T08:31:56.464Z,45.56
2023-05-23T08:32:56.210Z,45.57
2023-05-23T08:33:57.171Z,45.66
2023-05-23T08:34:56.374Z,45.70
2023-05-23T08:36:03.611Z,45.92
2023-05-23T08:36:56.259Z,45.86
2023-05-23T08:37:56.206Z,45.91
2023-05-23T08:38:56.200Z,45.96
2023-05-23T08:39:56.387Z,45.98
2023-05-23T08:40:56.180Z,46.01
2023-05-23T08:41:56.170Z,46.02
2023-05-23T08:42:56.244Z,46.06
2023-05-23T08:43:56.167Z,46.09
2023-05-23T08:44:56.340Z,46.08
2023-05-23T08:45:56.166Z,46.18
2023-05-23T08:46:56.142Z,46.19
2023-05-23T08:47:56.152Z,46.26
2023-05-23T08:48:56.131Z,46.18
2023-05-23T08:49:59.543Z,46.29
2023-05-23T08:50:56.113Z,46.34
2023-05-23T08:51:56.116Z,46.45
2023-05-23T08:52:56.145Z,46.43
2023-05-23T08:53:59.332Z,46.47
2023-05-23T08:54:56.093Z,46.42
2023-05-23T08:55:56.096Z,46.38
2023-05-23T08:56:57.104Z,46.52
2023-05-23T08:57:56.122Z,46.79
2023-05-23T08:58:56.077Z,46.82
2023-05-23T08:59:56.343Z,46.72
2023-05-23T09:00:56.048Z,46.65
2023-05-23T09:01:56.091Z,46.80
2023-05-23T09:02:56.050Z,46.84
2023-05-23T09:03:56.024Z,46.98
2023-05-23T09:04:56.028Z,47.02
2023-05-23T09:05:56.073Z,47.04
2023-05-23T09:06:56.014Z,47.10
2023-05-23T09:07:56.342Z,47.16
2023-05-23T09:08:56.077Z,47.29
2023-05-23T09:09:56.359Z,47.31
2023-05-23T09:10:56.072Z,47.40
2023-05-23T09:11:56.098Z,47.41
2023-05-23T09:12:56.126Z,47.47
2023-05-23T09:13:56.166Z,47.51
2023-05-23T09:14:56.208Z,47.53
2023-05-23T09:15:56.241Z,47.54
2023-05-23T09:16:56.239Z,47.58
2023-05-23T09:17:56.293Z,47.59
2023-05-23T09:18:56.317Z,47.56
2023-05-23T09:19:56.378Z,47.55
2023-05-23T09:20:56.338Z,47.55
2023-05-23T09:21:56.330Z,47.62
2023-05-23T09:22:56.350Z,47.78
2023-05-23T09:23:56.370Z,47.76
2023-05-23T09:24:56.851Z,47.85
2023-05-23T09:25:56.404Z,48.02
2023-05-23T09:26:56.417Z,47.86
2023-05-23T09:27:56.446Z,48.03
2023-05-23T09:28:56.457Z,47.95
2023-05-23T09:29:56.855Z,47.77
2023-05-23T09:30:56.512Z,47.63
2023-05-23T09:31:56.620Z,47.56
2023-05-23T09:32:57.207Z,47.45
2023-05-23T09:33:56.564Z,47.27
2023-05-23T09:34:56.855Z,47.18
2023-05-23T09:35:56.594Z,47.12
2023-05-23T09:36:56.618Z,47.06
2023-05-23T09:37:56.868Z,47.00
2023-05-23T09:38:56.689Z,46.91
2023-05-23T09:39:56.945Z,46.86
2023-05-23T09:40:56.747Z,46.89
2023-05-23T09:41:56.835Z,46.82
2023-05-23T09:42:56.826Z,46.81
2023-05-23T09:43:56.860Z,46.78
2023-05-23T09:44:57.359Z,46.77
2023-05-23T09:45:57.361Z,46.73
2023-05-23T09:46:57.032Z,46.72
2023-05-23T09:47:57.018Z,46.65
2023-05-23T09:48:57.064Z,46.66
2023-05-23T09:49:57.105Z,46.66
2023-05-23T09:50:57.164Z,46.72
2023-05-23T09:51:57.172Z,46.72
2023-05-23T09:52:57.218Z,46.67
2023-05-23T09:54:00.466Z,46.72
2023-05-23T09:54:57.274Z,46.69
2023-05-23T09:55:57.260Z,46.66
2023-05-23T09:56:58.361Z,46.69
2023-05-23T09:57:57.234Z,46.72
2023-05-23T09:58:57.270Z,46.72
2023-05-23T09:59:57.235Z,46.87
2023-05-23T10:01:04.863Z,46.91
2023-05-23T10:01:57.226Z,46.91
2023-05-23T10:02:57.314Z,47.00
2023-05-23T10:03:59.664Z,46.94
2023-05-23T10:04:57.204Z,46.99
2023-05-23T10:05:57.904Z,47.09
2023-05-23T10:06:57.215Z,47.08
2023-05-23T10:07:57.182Z,47.05
2023-05-23T10:08:57.157Z,47.04
2023-05-23T10:09:59.044Z,47.09
2023-05-23T10:10:57.481Z,47.08
2023-05-23T10:11:57.131Z,47.08
2023-05-23T10:12:57.390Z,47.07
2023-05-23T10:13:57.133Z,47.16
2023-05-23T10:14:57.128Z,47.13
2023-05-23T10:15:58.220Z,47.10
2023-05-23T10:16:57.424Z,47.15
2023-05-23T10:17:57.466Z,47.12
2023-05-23T10:18:57.122Z,47.19
2023-05-23T10:19:57.077Z,47.22
2023-05-23T10:20:57.073Z,47.33
2023-05-23T10:21:57.380Z,47.25
2023-05-23T10:22:57.063Z,47.25
2023-05-23T10:23:57.060Z,47.27
2023-05-23T10:24:57.373Z,47.39
2023-05-23T10:25:57.043Z,47.35
2023-05-23T10:26:57.377Z,47.38
2023-05-23T10:27:57.079Z,47.47
2023-05-23T10:28:57.379Z,47.43
2023-05-23T10:29:57.131Z,47.44
2023-05-23T10:30:57.193Z,47.43
2023-05-23T10:31:57.181Z,47.45
2023-05-23T10:32:57.257Z,47.55
2023-05-23T10:33:57.382Z,47.49
2023-05-23T10:34:57.411Z,47.64
2023-05-23T10:35:57.322Z,47.62
2023-05-23T10:36:57.374Z,47.71
2023-05-23T10:37:57.309Z,47.76
2023-05-23T10:38:57.335Z,47.78
2023-05-23T10:39:57.495Z,47.82
2023-05-23T10:40:57.361Z,47.76
2023-05-23T10:41:57.371Z,47.76
2023-05-23T10:42:57.371Z,47.71
2023-05-23T10:43:57.383Z,47.80
2023-05-23T10:44:58.630Z,47.85
2023-05-23T10:45:57.441Z,47.78
2023-05-23T10:46:58.496Z,47.88
2023-05-23T10:47:57.389Z,47.80
2023-05-23T10:48:57.378Z,47.89
2023-05-23T10:49:57.381Z,47.89
2023-05-23T10:50:57.393Z,47.93
2023-05-23T10:51:57.369Z,47.96
2023-05-23T10:52:57.376Z,47.86
2023-05-23T10:53:57.325Z,47.94
2023-05-23T10:54:57.338Z,47.99
2023-05-23T10:55:57.404Z,48.07
2023-05-23T10:56:57.300Z,48.06
2023-05-23T10:57:57.299Z,48.13
2023-05-23T10:58:57.287Z,48.19
2023-05-23T10:59:57.288Z,48.29
2023-05-23T11:00:57.383Z,48.30
2023-05-23T11:01:57.310Z,48.70
2023-05-23T11:02:57.365Z,48.56
2023-05-23T11:03:57.469Z,48.60
2023-05-23T11:04:57.249Z,48.51
2023-05-23T11:05:57.382Z,48.37
2023-05-23T11:06:57.250Z,48.25
2023-05-23T11:07:57.383Z,48.07
2023-05-23T11:08:57.212Z,47.96
2023-05-23T11:09:57.385Z,47.81
2023-05-23T11:10:57.225Z,47.76
2023-05-23T11:11:57.206Z,47.71
2023-05-23T11:12:57.421Z,47.66
2023-05-23T11:13:57.258Z,47.67
2023-05-23T11:14:57.404Z,47.54
2023-05-23T11:15:57.212Z,47.54
2023-05-23T11:16:57.233Z,47.40
2023-05-23T11:17:58.420Z,47.60
2023-05-23T11:18:57.418Z,47.67
2023-05-23T11:20:04.810Z,47.66
2023-05-23T11:20:57.200Z,47.79
2023-05-23T11:21:57.176Z,47.82
2023-05-23T11:22:57.200Z,47.79
2023-05-23T11:23:57.159Z,47.87
2023-05-23T11:24:57.421Z,47.99
2023-05-23T11:25:57.158Z,48.05
2023-05-23T11:26:57.135Z,48.24
2023-05-23T11:27:57.403Z,48.19
2023-05-23T11:28:57.139Z,48.18
2023-05-23T11:29:58.003Z,48.15
2023-05-23T11:30:57.121Z,48.17
2023-05-23T11:31:57.163Z,48.18
2023-05-23T11:32:57.477Z,48.15
2023-05-23T11:33:57.089Z,48.18
2023-05-23T11:34:57.108Z,48.04
2023-05-23T11:35:57.106Z,47.97
2023-05-23T11:36:57.160Z,47.86
2023-05-23T11:38:13.027Z,47.84
2023-05-23T11:38:57.065Z,47.72
2023-05-23T11:39:57.433Z,47.61
2023-05-23T11:40:57.048Z,47.61
2023-05-23T11:41:57.037Z,47.61
2023-05-23T11:42:57.050Z,47.74
2023-05-23T11:43:57.027Z,47.88
2023-05-23T11:44:57.441Z,47.99
2023-05-23T11:45:57.058Z,48.10
2023-05-23T11:46:57.006Z,48.30
2023-05-23T11:47:57.070Z,48.39
2023-05-23T11:48:57.007Z,48.55
2023-05-23T11:49:58.426Z,48.74
2023-05-23T11:50:56.985Z,48.67
2023-05-23T11:51:56.977Z,48.63
2023-05-23T11:52:57.006Z,48.45
2023-05-23T11:53:56.996Z,48.32
2023-05-23T11:55:02.068Z,48.29
2023-05-23T11:55:56.988Z,48.22
2023-05-23T11:56:56.942Z,48.13
2023-05-23T11:57:56.932Z,48.06
2023-05-23T11:58:56.920Z,48.00
2023-05-23T11:59:56.940Z,47.88
2023-05-23T12:00:56.913Z,47.84
2023-05-23T12:01:56.919Z,47.76
2023-05-23T12:02:57.288Z,47.79
2023-05-23T12:03:56.965Z,47.65
2023-05-23T12:04:57.018Z,47.67
2023-05-23T12:05:56.871Z,47.65
2023-05-23T12:06:56.914Z,47.55
2023-05-23T12:07:56.916Z,47.50
2023-05-23T12:08:56.889Z,47.54
2023-05-23T12:09:56.998Z,47.51
2023-05-23T12:10:56.840Z,47.53
2023-05-23T12:11:56.829Z,47.43
2023-05-23T12:12:56.828Z,47.46
2023-05-23T12:13:56.814Z,47.40
2023-05-23T12:14:56.938Z,47.34
2023-05-23T12:15:56.844Z,47.28
2023-05-23T12:16:56.937Z,47.26
2023-05-23T12:17:56.911Z,47.34
2023-05-23T12:18:56.885Z,47.26
2023-05-23T12:19:56.949Z,47.28
2023-05-23T12:20:56.757Z,47.32
2023-05-23T12:21:56.769Z,47.29
2023-05-23T12:22:56.761Z,47.29
2023-05-23T12:23:56.745Z,47.34
2023-05-23T12:24:56.950Z,47.32
2023-05-23T12:25:56.981Z,47.35
2023-05-23T12:26:56.725Z,47.32
2023-05-23T12:27:56.740Z,47.34
2023-05-23T12:28:56.708Z,47.36
2023-05-23T12:29:56.725Z,47.36
2023-05-23T12:30:56.729Z,47.36
2023-05-23T12:31:56.993Z,47.35
2023-05-23T12:32:56.711Z,47.32
2023-05-23T12:33:56.679Z,47.25
2023-05-23T12:34:56.982Z,47.28
2023-05-23T12:35:56.653Z,47.26
2023-05-23T12:37:10.360Z,47.20
2023-05-23T12:37:56.676Z,47.17
2023-05-23T12:38:56.640Z,47.12
2023-05-23T12:39:56.697Z,47.14
2023-05-23T12:40:56.621Z,47.11
2023-05-23T12:41:56.949Z,47.15
2023-05-23T12:42:56.652Z,47.12
2023-05-23T12:43:56.606Z,47.11
2023-05-23T12:44:56.598Z,47.15
2023-05-23T12:45:56.940Z,47.14
2023-05-23T12:46:56.638Z,47.14
2023-05-23T12:47:56.577Z,47.13
2023-05-23T12:48:56.557Z,47.07
2023-05-23T12:49:57.009Z,47.06
2023-05-23T12:50:56.544Z,47.04
2023-05-23T12:51:56.543Z,47.05
2023-05-23T12:52:56.541Z,47.05
2023-05-23T12:53:56.521Z,47.01
2023-05-23T12:54:56.546Z,46.97
2023-05-23T12:55:56.501Z,46.97
2023-05-23T12:56:56.498Z,46.97
2023-05-23T12:57:56.533Z,46.98
2023-05-23T12:58:59.721Z,46.92
2023-05-23T12:59:56.970Z,46.91
2023-05-23T13:00:56.500Z,46.89